Flight Track Log - Related Links

Times and Time Zones

All times are in EDT time to prevent confusion due to time zone crossing. See the WWI24 flight status page for this flight to view local times or setup timezone preferences in your user account.

Time Position Orientation Groundspeed Altitude Reporting Facility
EDT Latitude Longitude Course Direction KTS MPH feet Rate Location/Type
Thu 02:58:44 AM 34.1833 -118.4833 115° Southeast 192 221 1,700  Level Southern California TRACON
Thu 03:00:17 AM 34.1539 -118.4081 356° North 208 239 4,500 2,471 Climbing Los Angeles Center
Thu 03:01:17 AM 34.2372 -118.4153 344° North 140 161 8,000 3,250 Climbing Los Angeles Center
Thu 03:02:17 AM 34.3139 -118.4425 355° North 212 244 11,000 2,700 Climbing Los Angeles Center
Thu 03:03:17 AM 34.4056 -118.4528 60° Northeast 260 299 13,400 2,600 Climbing Los Angeles Center
Thu 03:04:17 AM 34.4556 -118.3458 54° Northeast 282 325 16,200 2,300 Climbing Los Angeles Center
Thu 03:05:17 AM 34.5200 -118.2389 52° Northeast 340 391 18,000 1,800 Climbing Los Angeles Center
Thu 03:06:17 AM 34.5822 -118.1422 63° Northeast 376 433 19,800 1,950 Climbing Los Angeles Center
Thu 03:07:17 AM 34.6364 -118.0147 82° East 399 459 21,900 2,000 Climbing Los Angeles Center
Thu 03:08:17 AM 34.6533 -117.8611 79° East 421 484 23,800 1,700 Climbing Los Angeles Center
Thu 03:09:17 AM 34.6786 -117.7025 73° East 448 516 25,300 1,650 Climbing Los Angeles Center
Thu 03:10:17 AM 34.7181 -117.5414 72° East 477 549 27,100 1,550 Climbing Los Angeles Center
Thu 03:11:17 AM 34.7617 -117.3753 73° East 494 568 28,400 1,400 Climbing Los Angeles Center
Thu 03:12:17 AM 34.8028 -117.2064 72° East 507 583 29,900 1,550 Climbing Los Angeles Center
Thu 03:13:17 AM 34.8525 -117.0147 74° East 527 606 31,500 1,550 Climbing Los Angeles Center
Thu 03:14:17 AM 34.8953 -116.8381 73° East 532 612 33,000 1,400 Climbing Los Angeles Center
Thu 03:15:17 AM 34.9400 -116.6611 58° Northeast 537 618 34,300 1,300 Climbing Los Angeles Center
Thu 03:16:17 AM 35.0200 -116.5042 46° Northeast 537 618 35,600 1,250 Climbing Los Angeles Center
Thu 03:17:17 AM 35.1206 -116.3778 46° Northeast 525 604 36,800 1,150 Climbing Los Angeles Center
Thu 03:18:17 AM 35.2231 -116.2483 45° Northeast 525 604 37,900 950 Climbing Los Angeles Center
Thu 03:19:17 AM 35.3231 -116.1239 46° Northeast 515 593 38,700 550 Climbing Los Angeles Center
Thu 03:20:17 AM 35.4233 -115.9964 45° Northeast 510 587 39,000 150 Climbing Los Angeles Center
Thu 03:21:17 AM 35.5233 -115.8736 46° Northeast 504 580 39,000  Level Los Angeles Center
Thu 03:22:17 AM 35.6231 -115.7456 46° Northeast 504 580 39,000  Level Los Angeles Center
Thu 03:23:17 AM 35.7247 -115.6147 49° Northeast 509 586 39,000  Level Los Angeles Center
Thu 03:24:17 AM 35.8203 -115.4783 58° Northeast 516 594 39,000  Level Los Angeles Center
Thu 03:25:17 AM 35.8922 -115.3342 66° East 530 610 39,000  Level Los Angeles Center
Thu 03:26:17 AM 35.9536 -115.1669 66° East 530 610 39,000  Level Los Angeles Center
Thu 03:27:17 AM 36.0150 -114.9992 67° East 525 604 39,000  Level Los Angeles Center
Thu 03:28:17 AM 36.0736 -114.8289 66° East 530 610 39,000  Level Los Angeles Center
Thu 03:29:17 AM 36.1344 -114.6608 66° East 530 610 39,000  Level Los Angeles Center
Thu 03:30:17 AM 36.1947 -114.4897 67° East 530 610 39,000  Level Los Angeles Center
Thu 03:31:17 AM 36.2528 -114.3186 66° East 530 610 39,000  Level Los Angeles Center
Thu 03:32:17 AM 36.3128 -114.1472 67° East 535 616 39,000  Level Los Angeles Center
Thu 03:33:17 AM 36.3706 -113.9756 67° East 541 623 39,000  Level Los Angeles Center
Thu 03:34:17 AM 36.4300 -113.8036 67° East 541 623 39,000 100 Level Los Angeles Center
Thu 03:35:17 AM 36.4892 -113.6314 67° East 541 623 39,200 350 Climbing Los Angeles Center
Thu 03:36:17 AM 36.5519 -113.4433 68° East 534 615 39,700 500 Climbing Los Angeles Center
Thu 03:37:17 AM 36.6064 -113.2786 67° East 529 609 40,200 500 Climbing Los Angeles Center
Thu 03:38:17 AM 36.6631 -113.1108 68° East 524 603 40,700 400 Climbing Los Angeles Center
Thu 03:39:17 AM 36.7094 -112.9642 67° East 519 597 41,000 150 Climbing Los Angeles Center
Thu 03:40:17 AM 36.7653 -112.7961 67° East 519 597 41,000  Level Los Angeles Center
Thu 03:41:17 AM 36.8211 -112.6275 68° East 519 597 41,000  Level Los Angeles Center
Thu 03:42:17 AM 36.8767 -112.4564 68° East 519 597 41,000  Level Los Angeles Center
Thu 03:44:33 AM 37.0047 -112.0517 69° East 540 621 41,000  Level Denver Center
Thu 03:45:33 AM 37.0517 -111.8992 68° East 535 616 41,000  Level Denver Center
Thu 03:46:33 AM 37.1056 -111.7314 68° East 529 609 41,000  Level Denver Center
Thu 03:47:33 AM 37.1617 -111.5531 68° East 529 609 41,000  Level Denver Center
Thu 03:48:33 AM 37.2147 -111.3847 69° East 529 609 41,000  Level Denver Center
Thu 03:49:33 AM 37.2681 -111.2111 69° East 523 602 41,000  Level Denver Center
Thu 03:50:33 AM 37.3208 -111.0422 69° East 518 596 41,000  Level Denver Center
Thu 03:51:33 AM 37.3711 -110.8756 69° East 518 596 41,000  Level Denver Center
Thu 03:52:33 AM 37.4261 -110.6908 68° East 518 596 41,000  Level Denver Center
Thu 03:53:33 AM 37.4803 -110.5214 66° East 518 596 41,000  Level Denver Center
Thu 03:54:33 AM 37.5406 -110.3519 69° East 527 606 41,000  Level Denver Center
Thu 03:55:33 AM 37.5919 -110.1819 70° East 527 606 41,000  Level Denver Center
Thu 03:56:33 AM 37.6389 -110.0217 70° East 527 606 41,000  Level Denver Center
Thu 03:57:33 AM 37.6878 -109.8511 69° East 521 600 41,000  Level Denver Center
Thu 03:58:33 AM 37.7456 -109.6594 69° East 526 605 41,000  Level Denver Center
Thu 03:59:33 AM 37.7961 -109.4883 70° East 526 605 41,000  Level Denver Center
Thu 04:00:33 AM 37.8397 -109.3325 70° East 520 598 41,000  Level Denver Center
Thu 04:01:33 AM 37.8897 -109.1556 69° East 520 598 41,000  Level Denver Center
Thu 04:02:33 AM 37.9464 -108.9631 70° East 528 608 41,000  Level Denver Center
Thu 04:03:33 AM 37.9958 -108.7908 70° East 521 600 41,000  Level Denver Center
Thu 04:04:33 AM 38.0383 -108.6394 72° East 511 588 41,000  Level Denver Center
Thu 04:05:33 AM 38.0856 -108.4536 70° East 501 577 41,000  Level Denver Center
Thu 04:06:33 AM 38.1322 -108.2886 71° East 501 577 41,000  Level Denver Center
Thu 04:07:33 AM 38.1742 -108.1367 70° East 495 570 41,000  Level Denver Center
Thu 04:08:33 AM 38.2267 -107.9503 72° East 500 575 41,000  Level Denver Center
Thu 04:09:33 AM 38.2706 -107.7819 70° East 500 575 41,000  Level Denver Center
Thu 04:10:33 AM 38.3181 -107.6133 71° East 505 581 41,000  Level Denver Center
Thu 04:11:33 AM 38.3592 -107.4606 71° East 499 574 41,000  Level Denver Center
Thu 04:12:33 AM 38.4086 -107.2758 72° East 499 574 41,000  Level Denver Center
Thu 04:13:33 AM 38.4514 -107.1119 71° East 499 574 41,000  Level Denver Center
Thu 04:14:33 AM 38.4917 -106.9611 71° East 489 563 41,000  Level Denver Center
Thu 04:15:33 AM 38.5361 -106.7969 72° East 489 563 41,000  Level Denver Center
Thu 04:16:33 AM 38.5844 -106.6111 71° East 489 563 41,000  Level Denver Center
Thu 04:17:33 AM 38.6283 -106.4439 71° East 489 563 41,000  Level Denver Center
Thu 04:18:33 AM 38.6658 -106.3003 72° East 481 554 41,000  Level Denver Center
Thu 04:19:33 AM 38.7111 -106.1167 71° East 476 548 41,000  Level Denver Center
Thu 04:20:33 AM 38.7544 -105.9539 72° East 482 555 41,000  Level Denver Center
Thu 04:21:33 AM 38.7953 -105.7886 72° East 482 555 41,000  Level Denver Center
Thu 04:22:33 AM 38.8358 -105.6231 71° East 482 555 41,000  Level Denver Center
Thu 04:23:33 AM 38.8803 -105.4544 72° East 489 563 41,000  Level Denver Center
Thu 04:24:33 AM 38.9225 -105.2883 73° East 489 563 41,000  Level Denver Center
Thu 04:25:33 AM 38.9583 -105.1381 72° East 483 556 41,000  Level Denver Center
Thu 04:26:33 AM 38.9981 -104.9772 72° East 478 550 41,000  Level Denver Center
Thu 04:27:33 AM 39.0397 -104.8131 74° East 478 550 41,000  Level Denver Center
Thu 04:28:33 AM 39.0767 -104.6464 72° East 478 550 41,000  Level Denver Center
Thu 04:29:33 AM 39.1178 -104.4847 73° East 478 550 41,000  Level Denver Center
Thu 04:30:33 AM 39.1567 -104.3203 72° East 478 550 41,000  Level Denver Center
Thu 04:31:33 AM 39.1972 -104.1556 73° East 478 550 41,000  Level Denver Center
Thu 04:32:33 AM 39.2356 -103.9936 73° East 478 550 41,000  Level Denver Center
Thu 04:33:33 AM 39.2756 -103.8283 73° East 478 550 41,000  Level Denver Center
Thu 04:34:33 AM 39.3133 -103.6633 73° East 478 550 41,000  Level Denver Center
Thu 04:35:33 AM 39.3508 -103.5006 74° East 478 550 41,000  Level Denver Center
Thu 04:36:33 AM 39.3919 -103.3161 72° East 485 558 41,000  Level Denver Center
Thu 04:37:33 AM 39.4350 -103.1447 74° East 485 558 41,000  Level Denver Center
Thu 04:38:33 AM 39.4736 -102.9706 74° East 491 565 41,000  Level Denver Center
Thu 04:39:33 AM 39.5119 -102.7992 74° East 491 565 41,000  Level Denver Center
Thu 04:40:33 AM 39.5503 -102.6300 74° East 491 565 41,000  Level Denver Center
Thu 04:41:33 AM 39.5881 -102.4528 75° East 491 565 41,000  Level Denver Center
Thu 04:42:33 AM 39.6236 -102.2781 74° East 501 577 41,000  Level Denver Center
Thu 04:43:33 AM 39.6594 -102.1194 74° East 501 577 41,000  Level Denver Center
Thu 04:44:33 AM 39.7019 -101.9278 76° East 501 577 41,000  Level Denver Center
Thu 04:45:33 AM 39.7367 -101.7525 75° East 501 577 41,000  Level Denver Center
Thu 04:46:33 AM 39.7731 -101.5744 75° East 501 577 41,000  Level Denver Center
Thu 04:47:33 AM 39.8058 -101.4178 74° East 501 577 41,000  Level Denver Center
Thu 04:48:33 AM 39.8475 -101.2281 76° East 501 577 41,000  Level Denver Center
Thu 04:49:33 AM 39.8828 -101.0494 74° East 506 582 41,000  Level Denver Center
Thu 04:50:33 AM 39.9169 -100.8894 75° East 501 577 41,000  Level Denver Center
Thu 04:51:33 AM 39.9519 -100.7131 74° East 501 577 41,000  Level Denver Center
Thu 04:52:33 AM 39.9925 -100.5225 76° East 501 577 41,000  Level Denver Center
Thu 04:53:33 AM 40.0267 -100.3431 75° East 502 578 41,000  Level Denver Center
Thu 04:54:33 AM 40.0597 -100.1828 76° East 502 578 41,000  Level Denver Center
Thu 04:55:33 AM 40.0989 -99.9836 76° East 502 578 41,000  Level Denver Center
Thu 04:56:33 AM 40.1292 -99.8231 76° East 502 578 41,000  Level Denver Center
Thu 04:58:26 AM 40.1972 -99.4558 76° East 514 592 41,000  Level Minneapolis Center
Thu 04:59:26 AM 40.2322 -99.2719 77° East 519 597 41,000  Level Minneapolis Center
Thu 05:00:26 AM 40.2647 -99.0900 75° East 519 597 41,000  Level Minneapolis Center
Thu 05:01:26 AM 40.3011 -98.9086 76° East 519 597 41,000  Level Minneapolis Center
Thu 05:02:26 AM 40.3350 -98.7292 77° East 519 597 41,000  Level Minneapolis Center
Thu 05:03:26 AM 40.3667 -98.5469 76° East 519 597 41,000  Level Minneapolis Center
Thu 05:04:26 AM 40.4000 -98.3672 77° East 519 597 41,000  Level Minneapolis Center
Thu 05:05:26 AM 40.4331 -98.1819 76° East 519 597 41,000 300 Level Minneapolis Center
Thu 05:06:26 AM 40.4658 -98.0019 77° East 519 597 41,600 750 Climbing Minneapolis Center
Thu 05:07:26 AM 40.4958 -97.8269 77° East 508 585 42,500 700 Climbing Minneapolis Center
Thu 05:08:26 AM 40.5256 -97.6572 76° East 486 559 43,000 250 Climbing Minneapolis Center
Thu 05:09:26 AM 40.5569 -97.4875 80° East 481 554 43,000  Level Minneapolis Center
Thu 05:10:26 AM 40.5769 -97.3361 77° East 481 554 43,000  Level Minneapolis Center
Thu 05:11:26 AM 40.6061 -97.1631 78° East 481 554 43,000  Level Minneapolis Center
Thu 05:12:26 AM 40.6347 -96.9847 77° East 486 559 43,000  Level Minneapolis Center
Thu 05:13:26 AM 40.6681 -96.7897 78° East 492 566 43,000  Level Minneapolis Center
Thu 05:14:26 AM 40.6961 -96.6136 77° East 492 566 43,000  Level Minneapolis Center
Thu 05:15:26 AM 40.7261 -96.4375 78° East 492 566 43,000  Level Minneapolis Center
Thu 05:16:26 AM 40.7539 -96.2583 79° East 492 566 43,000  Level Minneapolis Center
Thu 05:17:26 AM 40.7814 -96.0761 78° East 497 572 43,000  Level Minneapolis Center
Thu 05:18:26 AM 40.8106 -95.8967 78° East 503 579 43,000  Level Minneapolis Center
Thu 05:19:26 AM 40.8392 -95.7197 79° East 503 579 43,000  Level Minneapolis Center
Thu 05:20:26 AM 40.8658 -95.5372 79° East 503 579 43,000  Level Minneapolis Center
Thu 05:21:26 AM 40.8942 -95.3517 78° East 503 579 43,000  Level Minneapolis Center
Thu 05:22:26 AM 40.9222 -95.1744 79° East 503 579 43,000  Level Minneapolis Center
Thu 05:23:26 AM 40.9497 -94.9914 79° East 503 579 43,000  Level Minneapolis Center
Thu 05:24:26 AM 40.9750 -94.8136 79° East 503 579 43,000  Level Minneapolis Center
Thu 05:25:26 AM 41.0022 -94.6331 80° East 503 579 43,000  Level Minneapolis Center
Thu 05:26:26 AM 41.0225 -94.4742 79° East 498 573 43,000  Level Minneapolis Center
Thu 05:28:25 AM 41.0758 -94.1103 79° East 506 582 43,000  Level Chicago Center
Thu 05:29:25 AM 41.1019 -93.9275 80° East 500 575 43,000  Level Chicago Center
Thu 05:30:25 AM 41.1281 -93.7392 79° East 500 575 43,000  Level Chicago Center
Thu 05:31:25 AM 41.1539 -93.5533 79° East 507 583 43,000  Level Chicago Center
Thu 05:32:25 AM 41.1792 -93.3728 80° East 507 583 43,000  Level Chicago Center
Thu 05:33:25 AM 41.2022 -93.1892 80° East 501 577 43,000  Level Chicago Center
Thu 05:34:25 AM 41.2247 -93.0108 81° East 501 577 43,000  Level Chicago Center
Thu 05:35:25 AM 41.2469 -92.8300 79° East 501 577 43,000  Level Chicago Center
Thu 05:36:25 AM 41.2733 -92.6489 82° East 501 577 43,000  Level Chicago Center
Thu 05:37:25 AM 41.2928 -92.4703 82° East 496 571 43,000  Level Chicago Center
Thu 05:38:25 AM 41.3150 -92.2611 81° East 503 579 43,000  Level Chicago Center
Thu 05:39:25 AM 41.3364 -92.0767 79° East 503 579 43,000  Level Chicago Center
Thu 05:40:25 AM 41.3611 -91.9006 82° East 496 571 43,000  Level Chicago Center
Thu 05:41:25 AM 41.3819 -91.7106 81° East 501 577 43,000  Level Chicago Center
Thu 05:42:25 AM 41.4042 -91.5314 81° East 501 577 43,000  Level Chicago Center
Thu 05:43:25 AM 41.4264 -91.3494 81° East 501 577 43,000  Level Chicago Center
Thu 05:44:25 AM 41.4456 -91.1919 82° East 484 557 43,000  Level Chicago Center
Thu 05:45:25 AM 41.4653 -91.0069 82° East 489 563 43,000  Level Chicago Center
Thu 05:46:25 AM 41.4844 -90.8244 81° East 495 570 43,000  Level Chicago Center
Thu 05:47:25 AM 41.5075 -90.6225 81° East 500 575 43,000  Level Chicago Center
Thu 05:48:25 AM 41.5281 -90.4428 82° East 500 575 43,000  Level Chicago Center
Thu 05:49:25 AM 41.5464 -90.2600 82° East 500 575 43,000  Level Chicago Center
Thu 05:50:25 AM 41.5644 -90.0797 82° East 500 575 43,000  Level Chicago Center
Thu 05:51:25 AM 41.5842 -89.8967 82° East 495 570 43,000  Level Chicago Center
Thu 05:52:25 AM 41.6036 -89.7108 84° East 500 575 43,000  Level Chicago Center
Thu 05:53:25 AM 41.6186 -89.5306 83° East 500 575 43,000  Level Chicago Center
Thu 05:54:25 AM 41.6356 -89.3444 82° East 500 575 43,000  Level Chicago Center
Thu 05:55:25 AM 41.6542 -89.1581 83° East 505 581 43,000  Level Chicago Center
Thu 05:56:25 AM 41.6725 -88.9692 82° East 505 581 43,000  Level Chicago Center
Thu 05:57:25 AM 41.6906 -88.7883 84° East 499 574 43,000  Level Chicago Center
Thu 05:58:25 AM 41.7061 -88.6017 83° East 504 580 43,000  Level Chicago Center
Thu 05:59:25 AM 41.7233 -88.4181 84° East 504 580 43,000  Level Chicago Center
Thu 06:00:25 AM 41.7383 -88.2311 83° East 504 580 43,000  Level Chicago Center
Thu 06:01:25 AM 41.7533 -88.0667 84° East 498 573 43,000  Level Chicago Center
Thu 06:02:25 AM 41.7678 -87.8828 83° East 498 573 43,000  Level Chicago Center
Thu 06:03:25 AM 41.7842 -87.6986 84° East 498 573 43,000  Level Chicago Center
Thu 06:04:25 AM 41.7981 -87.5172 84° East 498 573 43,000  Level Chicago Center
Thu 06:05:25 AM 41.8136 -87.3272 84° East 503 579 43,000  Level Chicago Center
Thu 06:06:25 AM 41.8269 -87.1456 85° East 503 579 43,000  Level Chicago Center
Thu 06:07:25 AM 41.8400 -86.9614 84° East 503 579 43,000  Level Chicago Center
Thu 06:08:25 AM 41.8547 -86.7767 85° East 503 579 43,000  Level Chicago Center
Thu 06:09:25 AM 41.8669 -86.5894 84° East 508 585 43,000  Level Chicago Center
Thu 06:10:25 AM 41.8811 -86.4019 84° East 501 577 43,000  Level Chicago Center
Thu 06:11:25 AM 41.8964 -86.1975 85° East 501 577 43,000  Level Chicago Center
Thu 06:12:25 AM 41.9081 -86.0128 84° East 501 577 43,000  Level Chicago Center
Thu 06:13:25 AM 41.9214 -85.8306 86° East 496 571 43,000 -200 Level Chicago Center
Thu 06:14:25 AM 41.9300 -85.6458 84° East 501 577 42,600 -1,000 Descending Chicago Center
Thu 06:16:01 AM 41.9517 -85.3722 86° East 497 572 40,400 -1,538 Descending Cleveland Center
Thu 06:17:01 AM 41.9617 -85.1775 86° East 486 559 38,600 -1,850 Descending Cleveland Center
Thu 06:18:01 AM 41.9711 -84.9908 85° East 491 565 36,700 -1,850 Descending Cleveland Center
Thu 06:19:01 AM 41.9822 -84.8044 86° East 502 578 34,900 -1,600 Descending Cleveland Center
Thu 06:20:01 AM 41.9911 -84.6206 86° East 495 570 33,500 -1,250 Descending Cleveland Center
Thu 06:21:01 AM 41.9994 -84.4367 86° East 495 570 32,400 -1,350 Descending Cleveland Center
Thu 06:22:01 AM 42.0094 -84.2611 86° East 478 550 30,800 -1,600 Descending Cleveland Center
Thu 06:23:01 AM 42.0192 -84.0800 87° East 478 550 29,200 -1,500 Descending Cleveland Center
Thu 06:24:01 AM 42.0264 -83.9069 87° East 472 543 27,800 -1,400 Descending Cleveland Center
Thu 06:25:01 AM 42.0333 -83.7339 87° East 465 535 26,400 -1,450 Descending Cleveland Center
Thu 06:26:01 AM 42.0400 -83.5664 88° East 459 528 24,900 -1,200 Descending Cleveland Center
Thu 06:27:01 AM 42.0436 -83.4183 98° East 440 506 24,000 -450 Descending Cleveland Center
Thu 06:28:01 AM 42.0269 -83.2500 96° East 440 506 24,000 -462 Level Cleveland Center
Thu 06:28:32 AM 42.0186 -83.1517 98° East 450 518 23,300 -1,644 Descending Cleveland Center
Thu 06:29:14 AM 42.0067 -83.0367 97° East 444 511 22,000 -1,955 Descending Cleveland Center
Thu 06:30:01 AM 41.9947 -82.9106 98° East 439 505 20,400 -2,019 Descending Cleveland Center
Thu 06:31:01 AM 41.9789 -82.7564 98° East 421 484 18,400 -1,450 Descending Cleveland Center
Thu 06:32:01 AM 41.9647 -82.6217 97° East 408 470 17,500 -1,000 Descending Cleveland Center
Thu 06:33:01 AM 41.9506 -82.4761 98° East 403 464 16,400 -1,050 Descending Cleveland Center
Thu 06:34:01 AM 41.9361 -82.3333 99° East 392 451 15,400 -1,160 Descending Cleveland Center
Thu 06:35:00 AM 41.9194 -82.1850 97° East 378 435 14,100 -1,450 Descending Cleveland Center
Thu 06:36:01 AM 41.9069 -82.0478 110° East 367 422 12,500 -1,686 Descending Cleveland Center
Thu 06:37:01 AM 41.8728 -81.9244 127° Southeast 357 411 10,700 -1,600 Descending Cleveland Center
Thu 06:38:01 AM 41.8178 -81.8258 126° Southeast 340 391 9,300 -1,200 Descending Cleveland Center
Thu 06:38:56 AM 41.7747 -81.7469 144° Southeast 286 329 8,400 -1,552 Descending Cleveland Center
Thu 06:39:57 AM 41.7086 -81.6817 145° Southeast 283 326 6,300 -1,721 Descending Cleveland Center
Thu 06:40:58 AM 41.6447 -81.6222 152° Southeast 270 311 4,900 -1,240 Descending Cleveland Center
Thu 06:41:58 AM 41.5928 -81.5853 205° Southwest 204 235 3,800 -1,304 Descending Cleveland Center
Thu 06:42:53 AM 41.5531 -81.6097 239° Southwest 171 197 2,400 -1,406 Descending Cleveland Center
Thu 06:44:06 AM 41.5253 -81.6703 239° Southwest 154 177 800 -1,315 Descending Cleveland Center

Login

Don't have an account? Register now (free) for customized features, flight alerts, and more!